createdAt,value
2017-10-17T07:03:15.687Z,105
2017-10-17T07:04:17.131Z,105
2017-10-17T07:05:20.681Z,100
2017-10-17T07:06:22.649Z,100
2017-10-17T07:07:26.221Z,100
2017-10-17T07:08:29.766Z,100
2017-10-17T07:09:33.489Z,100
2017-10-17T07:10:37.038Z,95
2017-10-17T07:11:40.634Z,95
2017-10-17T07:12:44.399Z,90
2017-10-17T07:13:48.317Z,85
2017-10-17T07:14:51.921Z,85
2017-10-17T07:15:55.669Z,80
2017-10-17T07:16:59.190Z,80
2017-10-17T07:18:03.170Z,80
2017-10-17T07:19:06.802Z,80
2017-10-17T07:20:10.317Z,80
2017-10-17T07:21:13.907Z,80
2017-10-17T07:22:17.478Z,80
2017-10-17T07:23:21.031Z,80
2017-10-17T07:24:24.606Z,80
2017-10-17T07:25:28.190Z,80
2017-10-17T07:26:31.729Z,85
2017-10-17T07:27:35.271Z,85
2017-10-17T07:28:38.957Z,95
2017-10-17T07:29:40.973Z,100
2017-10-17T07:30:44.790Z,100
2017-10-17T07:31:49.338Z,105
2017-10-17T07:32:53.002Z,110
2017-10-17T07:33:56.263Z,110
2017-10-17T07:34:59.892Z,115
2017-10-17T07:36:03.445Z,115
2017-10-17T07:37:07.185Z,115
2017-10-17T07:38:10.823Z,120
2017-10-17T07:39:14.458Z,125
2017-10-17T07:40:18.915Z,125
2017-10-17T07:41:23.276Z,130
2017-10-17T07:42:27.501Z,135
2017-10-17T07:43:29.541Z,140
2017-10-17T07:44:33.263Z,145
2017-10-17T07:45:38.439Z,145
2017-10-17T07:46:42.169Z,150
2017-10-17T07:47:45.813Z,150
2017-10-17T07:48:49.825Z,155
2017-10-17T07:49:53.523Z,160
2017-10-17T07:50:57.091Z,160
2017-10-17T07:52:00.818Z,165
2017-10-17T07:53:04.332Z,175
2017-10-17T07:54:07.955Z,170
2017-10-17T07:55:10.076Z,175
2017-10-17T07:56:12.128Z,180
2017-10-17T07:57:14.890Z,185
2017-10-17T07:58:19.013Z,190
2017-10-17T07:59:22.893Z,200
2017-10-17T08:00:26.671Z,200
2017-10-17T08:01:30.656Z,205
2017-10-17T08:02:35.429Z,205
2017-10-17T08:03:38.595Z,210
2017-10-17T08:04:42.055Z,210
2017-10-17T08:05:45.649Z,205
2017-10-17T08:06:49.595Z,205
2017-10-17T08:07:53.474Z,205
2017-10-17T08:08:57.097Z,200
2017-10-17T08:10:01.013Z,205
2017-10-17T08:11:04.672Z,205
2017-10-17T08:12:08.128Z,205
2017-10-17T08:13:11.965Z,205
2017-10-17T08:14:16.510Z,210
2017-10-17T08:15:20.361Z,210
2017-10-17T08:16:24.343Z,210
2017-10-17T08:17:26.495Z,215
2017-10-17T08:18:30.318Z,215
2017-10-17T08:19:33.821Z,220
2017-10-17T08:20:37.646Z,220
2017-10-17T08:21:41.880Z,225
2017-10-17T08:22:45.578Z,220
2017-10-17T08:23:49.493Z,225
2017-10-17T08:24:53.123Z,225
2017-10-17T08:25:56.896Z,235
2017-10-17T08:27:00.064Z,235
2017-10-17T08:28:03.228Z,235
2017-10-17T08:29:07.444Z,240
2017-10-17T08:30:11.214Z,240
2017-10-17T08:31:16.488Z,245
2017-10-17T08:32:20.111Z,250
2017-10-17T08:33:23.821Z,255
2017-10-17T08:34:27.461Z,255
2017-10-17T08:35:31.470Z,250
2017-10-17T08:36:35.229Z,250
2017-10-17T08:37:39.579Z,255
2017-10-17T08:38:43.333Z,250
2017-10-17T08:39:46.881Z,255
2017-10-17T08:40:50.597Z,260
2017-10-17T08:41:54.276Z,265
2017-10-17T08:42:57.957Z,270
2017-10-17T08:44:01.637Z,285
2017-10-17T08:45:05.965Z,280
2017-10-17T08:46:08.065Z,290
2017-10-17T08:47:12.320Z,285
2017-10-17T08:48:16.143Z,285
2017-10-17T08:49:19.760Z,295
2017-10-17T08:50:26.047Z,310
2017-10-17T08:51:30.640Z,395
2017-10-17T08:52:34.223Z,435
2017-10-17T08:53:38.817Z,440
2017-10-17T08:54:42.897Z,440
2017-10-17T08:55:46.864Z,470
2017-10-17T08:56:50.648Z,490
2017-10-17T08:57:54.660Z,460
2017-10-17T08:58:56.690Z,440
2017-10-17T09:00:00.362Z,450
2017-10-17T09:01:04.005Z,440
2017-10-17T09:02:06.069Z,450
2017-10-17T09:03:09.604Z,480
2017-10-17T09:04:13.501Z,470
2017-10-17T09:05:17.170Z,460
2017-10-17T09:06:22.412Z,465
2017-10-17T09:07:26.167Z,465
2017-10-17T09:08:29.875Z,455
2017-10-17T09:09:33.837Z,470
2017-10-17T09:10:37.488Z,475
2017-10-17T09:11:41.434Z,485
2017-10-17T09:12:48.117Z,490
2017-10-17T09:13:52.103Z,505
2017-10-17T09:14:56.353Z,515
2017-10-17T09:16:00.633Z,510
2017-10-17T09:17:04.215Z,540
2017-10-17T09:18:08.285Z,555
2017-10-17T09:19:12.973Z,545
2017-10-17T09:20:16.903Z,570
2017-10-17T09:21:22.843Z,585
2017-10-17T09:22:26.746Z,580
2017-10-17T09:23:30.563Z,600
2017-10-17T09:24:35.017Z,600
2017-10-17T09:25:39.009Z,585
2017-10-17T09:26:41.109Z,570
2017-10-17T09:27:44.643Z,575
2017-10-17T09:28:48.145Z,615
2017-10-17T09:29:51.951Z,630
2017-10-17T09:30:54.834Z,635
2017-10-17T09:31:58.285Z,625
2017-10-17T09:33:00.792Z,595
2017-10-17T09:34:03.005Z,635
2017-10-17T09:35:06.066Z,665
2017-10-17T09:36:09.667Z,740
2017-10-17T09:37:13.007Z,735
2017-10-17T09:38:15.090Z,725
2017-10-17T09:39:17.499Z,720
2017-10-17T09:40:19.838Z,685
2017-10-17T09:41:22.580Z,665
2017-10-17T09:42:26.278Z,645
2017-10-17T09:43:28.365Z,580
2017-10-17T09:44:31.901Z,600
2017-10-17T09:45:40.393Z,600
